| time (UTC) | temp F | wind direction | speed MPH | gust MPH | rain 1hr in | rain 24hr in | rain mn in | humidity % | barometer mb |
| 20260507112044 | 48 | 125 | 1.0 | 4.0 | 0.00 | 0.26 | 0.26 | 95 | 1014.0 |
| 20260507111040 | 49 | 135 | 1.0 | 4.0 | 0.00 | 0.26 | 0.26 | 95 | 1013.9 |
| 20260507105034 | 48 | 135 | 1.0 | 4.0 | 0.00 | 0.26 | 0.26 | 96 | 1013.8 |
| 20260507104030 | 49 | 150 | 0.0 | 2.0 | 0.00 | 0.26 | 0.26 | 96 | 1013.8 |
| 20260507103027 | 49 | 135 | 1.0 | 2.0 | 0.00 | 0.26 | 0.26 | 96 | 1013.6 |
| 20260507102024 | 49 | 113 | 0.0 | 2.0 | 0.00 | 0.26 | 0.26 | 96 | 1013.5 |
| 20260507101020 | 49 | 152 | 1.0 | 2.0 | 0.00 | 0.26 | 0.26 | 97 | 1013.5 |
| 20260507100017 | 49 | 0.0 | 0.0 | 0.00 | 0.26 | 0.26 | 97 | 1013.5 | |
| 20260507095114 | 49 | 113 | 0.0 | 2.0 | 0.00 | 0.26 | 0.26 | 98 | 1013.4 |
| 20260507094110 | 49 | 151 | 0.0 | 2.0 | 0.00 | 0.26 | 0.26 | 98 | 1013.2 |
| 20260507093107 | 49 | 0.0 | 2.0 | 0.00 | 0.26 | 0.26 | 98 | 1013.1 | |
| 20260507092103 | 48 | 135 | 0.0 | 2.0 | 0.00 | 0.26 | 0.26 | 98 | 1013.0 |
| 20260507091100 | 48 | 113 | 0.0 | 2.0 | 0.00 | 0.26 | 0.26 | 98 | 1012.9 |
| 20260507085053 | 49 | 23 | 0.0 | 2.0 | 0.00 | 0.26 | 0.26 | 99 | 1012.6 |
| 20260507084050 | 48 | 69 | 1.0 | 4.0 | 0.01 | 0.26 | 0.26 | 99 | 1012.5 |
| 20260507083046 | 48 | 113 | 0.0 | 2.0 | 0.01 | 0.26 | 0.26 | 99 | 1012.5 |
| 20260507082042 | 48 | 130 | 1.0 | 2.0 | 0.01 | 0.26 | 0.26 | 99 | 1012.3 |
| 20260507080036 | 48 | 146 | 1.0 | 2.0 | 0.02 | 0.26 | 0.26 | 99 | 1012.1 |
| 20260507075032 | 48 | 135 | 0.0 | 2.0 | 0.02 | 0.26 | 0.26 | 99 | 1012.0 |
| 20260507074028 | 48 | 135 | 0.0 | 2.0 | 0.01 | 0.25 | 0.25 | 99 | 1011.8 |
| 20260507072021 | 48 | 135 | 0.0 | 2.0 | 0.01 | 0.25 | 0.25 | 99 | 1011.6 |
| 20260507071017 | 48 | 180 | 0.0 | 2.0 | 0.00 | 0.24 | 0.24 | 99 | 1011.5 |
| 20260507070114 | 48 | 194 | 1.0 | 2.0 | 0.00 | 0.24 | 0.24 | 99 | 1011.5 |
| 20260507065111 | 48 | 135 | 0.0 | 2.0 | 0.00 | 0.24 | 0.24 | 99 | 1011.5 |
| 20260507064107 | 48 | 135 | 0.0 | 2.0 | 0.00 | 0.24 | 0.24 | 99 | 1011.4 |
| 20260507062101 | 48 | 113 | 0.0 | 2.0 | 0.00 | 0.24 | 0.24 | 99 | 1011.0 |
| 20260507061057 | 48 | 124 | 1.0 | 2.0 | 0.01 | 0.24 | 0.24 | 99 | 1011.0 |
| 20260507060054 | 48 | 135 | 1.0 | 2.0 | 0.01 | 0.24 | 0.24 | 98 | 1010.8 |
| 20260507055051 | 48 | 135 | 0.0 | 2.0 | 0.01 | 0.24 | 0.24 | 99 | 1010.8 |
| 20260507054047 | 49 | 124 | 0.0 | 2.0 | 0.01 | 0.24 | 0.24 | 99 | 1010.6 |
| 20260507053044 | 48 | 135 | 0.0 | 2.0 | 0.01 | 0.24 | 0.24 | 99 | 1010.4 |
| 20260507052040 | 49 | 135 | 0.0 | 2.0 | 0.01 | 0.24 | 0.24 | 99 | 1010.4 |
| 20260507051037 | 49 | 113 | 0.0 | 2.0 | 0.00 | 0.22 | 0.22 | 99 | 1010.2 |
| 20260507050034 | 49 | 135 | 1.0 | 2.0 | 0.00 | 0.22 | 0.22 | 99 | 1010.2 |
| 20260507045030 | 49 | 135 | 1.0 | 2.0 | 0.01 | 0.22 | 0.22 | 99 | 1010.0 |
| 20260507044027 | 49 | 146 | 1.0 | 2.0 | 0.01 | 0.22 | 0.22 | 99 | 1009.9 |
| 20260507043023 | 49 | 135 | 0.0 | 2.0 | 0.02 | 0.22 | 0.22 | 99 | 1009.8 |
| 20260507042020 | 49 | 158 | 1.0 | 2.0 | 0.02 | 0.22 | 0.22 | 99 | 1009.6 |
| 20260507041017 | 49 | 113 | 0.0 | 2.0 | 0.04 | 0.22 | 0.22 | 99 | 1009.4 |
| 20260507040114 | 50 | 169 | 1.0 | 4.0 | 0.04 | 0.22 | 0.22 | 98 | 1009.4 |
| 20260507035110 | 50 | 128 | 1.0 | 4.0 | 0.02 | 0.21 | 0.21 | 98 | 1009.3 |
| 20260507034107 | 50 | 135 | 1.0 | 2.0 | 0.02 | 0.21 | 0.21 | 98 | 1009.2 |
| 20260507033103 | 50 | 135 | 1.0 | 4.0 | 0.04 | 0.20 | 0.20 | 98 | 1009.2 |
| 20260507032100 | 50 | 158 | 1.0 | 2.0 | 0.07 | 0.20 | 0.20 | 98 | 1009.2 |
| 20260507031057 | 50 | 153 | 1.0 | 4.0 | 0.07 | 0.19 | 0.19 | 98 | 1008.9 |
| 20260507030053 | 50 | 128 | 1.0 | 2.0 | 0.07 | 0.19 | 0.19 | 98 | 1009.0 |
| 20260507025050 | 50 | 148 | 2.0 | 4.0 | 0.08 | 0.19 | 0.19 | 98 | 1009.0 |
| 20260507024046 | 50 | 142 | 2.0 | 4.0 | 0.09 | 0.19 | 0.19 | 98 | 1008.9 |
| 20260507023043 | 50 | 158 | 2.0 | 4.0 | 0.07 | 0.17 | 0.17 | 98 | 1009.0 |
| 20260507022040 | 51 | 146 | 2.0 | 6.0 | 0.05 | 0.13 | 0.13 | 98 | 1008.9 |
| 20260507021036 | 51 | 159 | 1.0 | 2.0 | 0.05 | 0.12 | 0.12 | 98 | 1009.0 |
| 20260507020033 | 51 | 144 | 2.0 | 4.0 | 0.06 | 0.12 | 0.12 | 98 | 1008.8 |
| 20260507015029 | 51 | 135 | 1.0 | 4.0 | 0.05 | 0.11 | 0.11 | 98 | 1008.9 |
| 20260507014026 | 51 | 135 | 1.0 | 2.0 | 0.05 | 0.09 | 0.09 | 98 | 1008.6 |
| 20260507012019 | 51 | 135 | 0.0 | 2.0 | 0.06 | 0.08 | 0.08 | 98 | 1008.5 |
| 20260507011016 | 51 | 158 | 1.0 | 2.0 | 0.06 | 0.07 | 0.07 | 97 | 1008.5 |
| 20260507005109 | 51 | 137 | 1.0 | 2.0 | 0.05 | 0.06 | 0.06 | 97 | 1008.6 |
| 20260507002059 | 52 | 144 | 2.0 | 4.0 | 0.02 | 0.04 | 0.02 | 97 | 1008.5 |
| 20260507001055 | 52 | 166 | 2.0 | 4.0 | 0.01 | 0.02 | 0.01 | 97 | 1008.6 |
| 20260507000052 | 52 | 149 | 1.0 | 6.0 | 0.01 | 0.02 | 0.01 | 96 | 1008.5 |
| 20260506235049 | 52 | 149 | 2.0 | 4.0 | 0.01 | 0.02 | 0.01 | 96 | 1008.5 |
| 20260506234045 | 52 | 142 | 2.0 | 4.0 | 0.01 | 0.02 | 0.01 | 96 | 1008.5 |
| 20260506232039 | 52 | 139 | 2.0 | 4.0 | 0.00 | 0.01 | 0.00 | 94 | 1008.4 |
| 20260506231035 | 53 | 154 | 1.0 | 4.0 | 0.00 | 0.01 | 0.00 | 93 | 1008.4 |
| 20260506230032 | 53 | 139 | 1.0 | 4.0 | 0.00 | 0.01 | 0.00 | 91 | 1008.5 |
| 20260506225028 | 53 | 135 | 0.0 | 4.0 | 0.00 | 0.01 | 0.00 | 91 | 1008.3 |
| 20260506224025 | 53 | 149 | 1.0 | 2.0 | 0.00 | 0.01 | 0.00 | 92 | 1008.3 |
| 20260506222018 | 54 | 135 | 1.0 | 2.0 | 0.00 | 0.01 | 0.00 | 91 | 1008.1 |
| 20260506221115 | 54 | 124 | 1.0 | 2.0 | 0.00 | 0.01 | 0.00 | 90 | 1008.2 |
| 20260506214105 | 54 | 135 | 2.0 | 4.0 | 0.00 | 0.01 | 0.01 | 89 | 1008.0 |
| 20260506213102 | 54 | 138 | 1.0 | 2.0 | 0.00 | 0.01 | 0.01 | 90 | 1007.8 |
| 20260506212058 | 54 | 147 | 1.0 | 4.0 | 0.00 | 0.01 | 0.01 | 89 | 1007.9 |
| 20260506211055 | 54 | 135 | 1.0 | 2.0 | 0.00 | 0.01 | 0.01 | 89 | 1007.9 |
| 20260506210051 | 54 | 135 | 1.0 | 2.0 | 0.00 | 0.01 | 0.01 | 90 | 1007.8 |
| 20260506205048 | 54 | 126 | 1.0 | 2.0 | 0.00 | 0.01 | 0.01 | 89 | 1007.9 |
| 20260506204044 | 54 | 120 | 0.0 | 2.0 | 0.00 | 0.01 | 0.01 | 89 | 1007.7 |
| 20260506203041 | 55 | 125 | 0.0 | 2.0 | 0.00 | 0.01 | 0.01 | 88 | 1007.6 |
| 20260506202038 | 55 | 145 | 0.0 | 2.0 | 0.00 | 0.01 | 0.01 | 87 | 1007.6 |
| 20260506201034 | 55 | 135 | 1.0 | 2.0 | 0.00 | 0.02 | 0.01 | 86 | 1007.6 |
| 20260506200031 | 55 | 135 | 1.0 | 2.0 | 0.00 | 0.02 | 0.01 | 86 | 1007.6 |
| 20260506194024 | 56 | 135 | 1.0 | 2.0 | 0.00 | 0.04 | 0.01 | 84 | 1007.5 |
| 20260506193021 | 56 | 135 | 1.0 | 2.0 | 0.00 | 0.04 | 0.01 | 83 | 1007.3 |
| 20260506192017 | 56 | 146 | 1.0 | 2.0 | 0.00 | 0.04 | 0.01 | 82 | 1007.2 |
| 20260506191114 | 56 | 158 | 1.0 | 2.0 | 0.00 | 0.04 | 0.01 | 82 | 1007.1 |
| 20260506181053 | 58 | 135 | 0.0 | 2.0 | 0.00 | 0.06 | 0.01 | 81 | 1006.3 |
| 20260506180050 | 58 | 135 | 1.0 | 2.0 | 0.00 | 0.06 | 0.01 | 81 | 1006.3 |
| 20260506174043 | 58 | 113 | 1.0 | 2.0 | 0.00 | 0.06 | 0.01 | 82 | 1006.2 |
| 20260506173040 | 59 | 0.0 | 2.0 | 0.00 | 0.08 | 0.01 | 81 | 1006.1 | |
| 20260506172037 | 59 | 0.0 | 0.0 | 0.00 | 0.12 | 0.01 | 81 | 1005.9 | |
| 20260506171033 | 59 | 0.0 | 2.0 | 0.00 | 0.13 | 0.01 | 80 | 1005.9 | |
| 20260506164023 | 60 | 0.0 | 0.0 | 0.00 | 0.20 | 0.01 | 78 | 1005.9 | |
| 20260506163020 | 60 | 0.0 | 2.0 | 0.00 | 0.20 | 0.01 | 79 | 1005.8 | |
| 20260506162511 | 60 | 0.0 | 0.0 | 0.00 | 0.20 | 0.01 | 78 | 1006.1 | |
| 20260506162016 | 60 | 0.0 | 0.0 | 0.00 | 0.20 | 0.01 | 78 | 1006.1 | |
| 20260506161113 | 61 | 0.0 | 0.0 | 0.00 | 0.20 | 0.01 | 78 | 1006.3 | |
| 20260506160110 | 61 | 31 | 1.0 | 2.0 | 0.00 | 0.22 | 0.01 | 76 | 1006.3 |
| 20260506155106 | 61 | 23 | 2.0 | 6.0 | 0.00 | 0.27 | 0.01 | 73 | 1006.2 |
| 20260506154103 | 61 | 0.0 | 2.0 | 0.00 | 0.31 | 0.01 | 73 | 1006.3 | |
| 20260506152055 | 62 | 135 | 1.0 | 2.0 | 0.00 | 0.35 | 0.01 | 68 | 1006.1 |
| 20260506151050 | 62 | 135 | 0.0 | 2.0 | 0.00 | 0.35 | 0.01 | 70 | 1006.1 |
| 20260506145043 | 62 | 150 | 2.0 | 4.0 | 0.00 | 0.35 | 0.01 | 65 | 1006.1 |
| 20260506144039 | 62 | 145 | 2.0 | 4.0 | 0.00 | 0.35 | 0.01 | 67 | 1006.0 |
| 20260506142033 | 64 | 149 | 1.0 | 7.0 | 0.00 | 0.35 | 0.01 | 67 | 1006.1 |
| 20260506141029 | 63 | 151 | 2.0 | 4.0 | 0.00 | 0.35 | 0.01 | 64 | 1006.2 |
| 20260506140026 | 63 | 133 | 2.0 | 4.0 | 0.00 | 0.35 | 0.01 | 67 | 1006.3 |
| 20260506135022 | 63 | 146 | 3.0 | 6.0 | 0.00 | 0.35 | 0.01 | 64 | 1006.2 |
| 20260506134019 | 63 | 150 | 2.0 | 6.0 | 0.00 | 0.35 | 0.01 | 60 | 1006.4 |
| 20260506133016 | 65 | 148 | 1.0 | 4.0 | 0.00 | 0.35 | 0.01 | 63 | 1006.2 |
| 20260506132113 | 63 | 142 | 2.0 | 4.0 | 0.00 | 0.35 | 0.01 | 67 | 1006.4 |
| 20260506125102 | 62 | 171 | 4.0 | 7.0 | 0.00 | 0.35 | 0.01 | 68 | 1006.4 |
| 20260506122052 | 64 | 165 | 2.0 | 7.0 | 0.00 | 0.35 | 0.01 | 66 | 1006.7 |
| 20260506121049 | 62 | 155 | 2.0 | 6.0 | 0.00 | 0.35 | 0.01 | 68 | 1006.7 |